イルクーツク の空港の天気 - METARとTAF

イルクーツク国際空港 ( UIII / IKT ) - ロシア イルクーツク
飛行場実況気象(Metar)
観測時間10/21 23:30 IRKT (10/21 15:30 UTC)
風向・風速東 2m/s
視程10km以上
天気現象
なし
気温-1℃
湿度93%
気圧1019hPa
METARUIII 211530Z 10002MPS CAVOK M01/M02 Q1019 R12/190055 NOSIG RMK QFE722/0963
過去の天気等 Google飛行場航空写真 Wunderground天気予報

過去48時間のMETAR

飛行場予報(TAF)
発表時間: 10/21 22:00 IRKT (10/21 14:00 UTC)
予報対象時間: 21日23時 IRKT ~ 22日23時 IRKT
風向・風速不定 1m/s
視程10km以上
なし
21日23時 IRKT ~ 22日10時 IRKT に一時的に
視程300m
天気現象氷霧
全天を覆う雲 鉛直視程 30m
22日10時 IRKT ~ 22日12時 IRKT に徐々に
風向・風速南南東 6m/s
TAF UIII 211400Z 2115/2215 VRB01MPS 9999 NSC
TEMPO 2115/2202 0300 FZFG VV001
BECMG 2202/2204 16006MPS